Time;durP1;ratioP1;P1;durP2;ratioP2;P2;SDS_P1;SDS_P2;PMS_P1;PMS_P2;Temp;Humidity;BMP_temperature;BMP_pressure;BME280_temperature;BME280_humidity;BME280_pressure;Samples;Min_cycle;Max_cycle;Signal;HPM_P1;HPM_P2
2021/08/24 00:01:45;;;;;;;;;;;15.70;99.90;;;;;;1883331;76;20215;-70
2021/08/24 00:04:12;;;;;;;;;;;15.70;99.90;;;;;;1883678;76;20222;-70
2021/08/24 00:06:38;;;;;;;;;;;15.70;99.90;;;;;;1883676;76;20124;-70
2021/08/24 00:09:05;;;;;;;;;;;15.70;99.90;;;;;;1883666;76;20191;-70
2021/08/24 00:11:33;;;;;;;;;;;15.60;99.90;;;;;;1882976;76;20163;-70
2021/08/24 00:14:01;;;;;;;;;;;15.50;99.90;;;;;;1883625;76;20168;-70
2021/08/24 00:16:28;;;;;;;;;;;15.60;99.90;;;;;;1883628;76;20210;-70
2021/08/24 00:18:55;;;;;;;;;;;15.60;99.90;;;;;;1883737;76;20194;-70
2021/08/24 00:21:22;;;;;;;;;;;15.50;99.90;;;;;;1883547;76;20167;-70
2021/08/24 00:23:49;;;;;;;;;;;15.50;99.90;;;;;;1883665;76;20159;-70
2021/08/24 00:26:16;;;;;;;;;;;15.50;99.90;;;;;;1883812;76;20193;-70
2021/08/24 00:28:42;;;;;;;;;;;15.50;99.90;;;;;;1883734;76;20183;-70
2021/08/24 00:31:09;;;;;;;;;;;15.50;99.90;;;;;;1883557;76;20120;-70
2021/08/24 00:33:36;;;;;;;;;;;15.50;99.90;;;;;;1883752;76;20164;-70
2021/08/24 00:36:03;;;;;;;;;;;15.40;99.90;;;;;;1883849;76;20148;-70
2021/08/24 00:38:30;;;;;;;;;;;15.40;99.90;;;;;;1883891;76;20863;-70
2021/08/24 00:40:58;;;;;;;;;;;15.30;99.90;;;;;;1883584;76;20171;-70
2021/08/24 00:43:26;;;;;;;;;;;15.30;99.90;;;;;;1883781;76;20198;-70
2021/08/24 00:45:54;;;;;;;;;;;15.20;99.90;;;;;;1883850;76;20168;-70
2021/08/24 00:48:26;;;;;;;;;;;15.20;99.90;;;;;;1883823;76;20175;-70
2021/08/24 00:50:53;;;;;;;;;;;15.20;99.90;;;;;;1883471;76;20190;-70
2021/08/24 00:53:22;;;;;;;;;;;15.10;99.90;;;;;;1883684;76;20268;-70
2021/08/24 00:55:49;;;;;;;;;;;15.20;99.90;;;;;;1883794;76;20198;-70
2021/08/24 00:58:17;;;;;;;;;;;15.30;99.90;;;;;;1883765;76;20120;-70
2021/08/24 01:00:45;;;;;;;;;;;15.30;99.90;;;;;;1883475;76;20112;-70
2021/08/24 01:03:13;;;;;;;;;;;15.40;99.90;;;;;;1883638;76;20182;-70
2021/08/24 01:05:41;;;;;;;;;;;15.30;99.90;;;;;;1881551;76;20171;-70
2021/08/24 01:08:10;;;;;;;;;;;15.30;99.90;;;;;;1883945;76;20125;-70
2021/08/24 01:10:41;;;;;;;;;;;15.20;99.90;;;;;;1883205;76;20389;-70
2021/08/24 01:13:09;;;;;;;;;;;15.20;99.90;;;;;;1883679;76;20275;-70
2021/08/24 01:15:43;;;;;;;;;;;15.10;99.90;;;;;;1883614;76;20468;-70
2021/08/24 01:18:11;;;;;;;;;;;15.10;99.90;;;;;;1883499;76;20160;-70
2021/08/24 01:20:51;;;;;;;;;;;15.10;99.90;;;;;;1883469;76;20199;-70
2021/08/24 01:23:22;;;;;;;;;;;15.10;99.90;;;;;;1883528;76;20136;-70
2021/08/24 01:26:07;;;;;;;;;;;15.10;99.90;;;;;;1882285;76;20148;-70
2021/08/24 01:28:39;;;;;;;;;;;15.10;99.90;;;;;;1883404;76;20195;-70
2021/08/24 01:31:19;;;;;;;;;;;15.10;99.90;;;;;;1883179;76;20476;-70
2021/08/24 01:33:50;;;;;;;;;;;15.00;99.90;;;;;;1881626;76;20194;-70
2021/08/24 01:36:19;;;;;;;;;;;15.10;99.90;;;;;;1883543;76;20109;-70
2021/08/24 01:38:50;;;;;;;;;;;15.10;99.90;;;;;;1881929;76;20124;-70
2021/08/24 01:41:18;;;;;;;;;;;15.00;99.90;;;;;;1882691;76;20172;-70
2021/08/24 01:43:58;;;;;;;;;;;15.00;99.90;;;;;;1881779;76;20147;-70
2021/08/24 01:46:30;;;;;;;;;;;14.90;99.90;;;;;;1883491;76;20112;-69
2021/08/24 01:48:58;;;;;;;;;;;15.00;99.90;;;;;;1882149;76;20159;-70
2021/08/24 01:51:26;;;;;;;;;;;14.90;99.90;;;;;;1883342;76;20182;-69
2021/08/24 01:53:55;;;;;;;;;;;14.90;99.90;;;;;;1883474;76;20148;-70
2021/08/24 01:56:23;;;;;;;;;;;14.90;99.90;;;;;;1882581;76;20171;-69
2021/08/24 01:58:57;;;;;;;;;;;14.90;99.90;;;;;;1883567;76;20179;-69
2021/08/24 02:01:26;;;;;;;;;;;14.80;99.90;;;;;;1881513;76;20144;-69
2021/08/24 02:03:54;;;;;;;;;;;14.80;99.90;;;;;;1883014;76;20465;-69
2021/08/24 02:06:23;;;;;;;;;;;14.80;99.90;;;;;;1883628;76;20209;-70
2021/08/24 02:08:51;;;;;;;;;;;14.70;99.90;;;;;;1882371;76;20456;-70
2021/08/24 02:11:18;;;;;;;;;;;14.70;99.90;;;;;;1883454;76;20150;-69
2021/08/24 02:13:47;;;;;;;;;;;14.70;99.90;;;;;;1883662;76;20156;-69
2021/08/24 02:16:15;;;;;;;;;;;14.60;99.90;;;;;;1883752;76;20223;-70
2021/08/24 02:18:43;;;;;;;;;;;14.50;99.90;;;;;;1881813;76;20195;-69
2021/08/24 02:21:12;;;;;;;;;;;14.70;99.90;;;;;;1883250;76;20131;-69
2021/08/24 02:23:39;;;;;;;;;;;14.60;99.90;;;;;;1883073;76;20108;-69
2021/08/24 02:26:08;;;;;;;;;;;14.60;99.90;;;;;;1883586;76;20168;-70
2021/08/24 02:28:36;;;;;;;;;;;14.50;99.90;;;;;;1883581;76;20153;-70
2021/08/24 02:31:21;;;;;;;;;;;14.60;99.90;;;;;;1883407;76;20128;-70
2021/08/24 02:33:49;;;;;;;;;;;14.50;99.90;;;;;;1872613;73;20208;-70
2021/08/24 02:36:16;;;;;;;;;;;14.40;99.90;;;;;;1854465;77;20185;-71
2021/08/24 02:38:44;;;;;;;;;;;14.50;99.90;;;;;;1854889;77;20205;-71
2021/08/24 02:41:16;;;;;;;;;;;14.50;99.90;;;;;;1854865;77;20124;-70
2021/08/24 02:43:53;;;;;;;;;;;14.50;99.90;;;;;;1854465;77;20118;-70
2021/08/24 02:46:31;;;;;;;;;;;14.50;99.90;;;;;;1861722;77;20466;-70
2021/08/24 02:48:59;;;;;;;;;;;14.40;99.90;;;;;;1829280;78;20132;-71
2021/08/24 02:51:27;;;;;;;;;;;14.30;99.90;;;;;;1829367;78;20191;-71
2021/08/24 02:54:01;;;;;;;;;;;14.30;99.90;;;;;;1829095;78;20488;-70
2021/08/24 02:56:28;;;;;;;;;;;14.20;99.90;;;;;;1854754;77;20439;-70
2021/08/24 02:58:55;;;;;;;;;;;14.20;99.90;;;;;;1861654;77;20157;-71
2021/08/24 03:01:22;;;;;;;;;;;14.30;99.90;;;;;;1829188;78;20117;-70
2021/08/24 03:03:49;;;;;;;;;;;14.40;99.90;;;;;;1861516;77;20166;-71
2021/08/24 03:06:15;;;;;;;;;;;14.30;99.90;;;;;;1829275;78;20163;-70
2021/08/24 03:08:43;;;;;;;;;;;14.30;99.90;;;;;;1855111;77;20522;-70
2021/08/24 03:11:11;;;;;;;;;;;14.30;99.90;;;;;;1854831;77;20460;-71
2021/08/24 03:13:42;;;;;;;;;;;14.30;99.90;;;;;;1855021;77;20154;-72
2021/08/24 03:16:19;;;;;;;;;;;14.20;99.90;;;;;;1854861;76;20182;-71
2021/08/24 03:18:47;;;;;;;;;;;14.10;99.90;;;;;;1855078;77;20219;-70
2021/08/24 03:21:16;;;;;;;;;;;14.10;99.90;;;;;;1829606;78;20132;-71
2021/08/24 03:23:44;;;;;;;;;;;14.10;99.90;;;;;;1829386;78;20751;-71
2021/08/24 03:26:12;;;;;;;;;;;14.20;99.90;;;;;;1861882;77;20116;-70
2021/08/24 03:28:40;;;;;;;;;;;14.20;99.90;;;;;;1829541;78;20152;-71
2021/08/24 03:31:07;;;;;;;;;;;14.20;99.90;;;;;;1861455;77;20148;-71
2021/08/24 03:33:34;;;;;;;;;;;14.10;99.90;;;;;;1828868;78;20201;-71
2021/08/24 03:36:00;;;;;;;;;;;14.10;99.90;;;;;;1861697;77;20372;-71
2021/08/24 03:38:27;;;;;;;;;;;14.20;99.90;;;;;;1829172;78;20140;-71
2021/08/24 03:40:54;;;;;;;;;;;14.20;99.90;;;;;;1861290;77;20919;-71
2021/08/24 03:43:21;;;;;;;;;;;14.20;99.90;;;;;;1829085;78;20124;-71
2021/08/24 03:45:48;;;;;;;;;;;14.20;99.90;;;;;;1861417;77;20189;-71
2021/08/24 03:48:14;;;;;;;;;;;14.20;99.90;;;;;;1829306;78;20183;-71
2021/08/24 03:50:41;;;;;;;;;;;14.10;99.90;;;;;;1861178;77;20160;-71
2021/08/24 03:53:08;;;;;;;;;;;14.10;99.90;;;;;;1829176;78;20204;-71
2021/08/24 03:55:35;;;;;;;;;;;14.10;99.90;;;;;;1861616;77;20189;-71
2021/08/24 03:58:02;;;;;;;;;;;14.00;99.90;;;;;;1829153;78;20160;-71
2021/08/24 04:00:28;;;;;;;;;;;14.00;99.90;;;;;;1861435;77;20169;-71
2021/08/24 04:02:55;;;;;;;;;;;14.00;99.90;;;;;;1829205;78;20158;-71
2021/08/24 04:05:22;;;;;;;;;;;13.90;99.90;;;;;;1861491;77;20121;-71
2021/08/24 04:07:49;;;;;;;;;;;13.90;99.90;;;;;;1829121;78;20257;-71
2021/08/24 04:10:16;;;;;;;;;;;13.70;99.90;;;;;;1861439;77;20125;-72
2021/08/24 04:12:42;;;;;;;;;;;13.80;99.90;;;;;;1828993;78;20181;-71
2021/08/24 04:15:09;;;;;;;;;;;13.80;99.90;;;;;;1861448;77;20173;-71
2021/08/24 04:17:38;;;;;;;;;;;13.80;99.90;;;;;;1829089;78;20184;-71
2021/08/24 04:20:05;;;;;;;;;;;13.90;99.90;;;;;;1854215;77;20517;-71
2021/08/24 04:22:33;;;;;;;;;;;13.90;99.90;;;;;;1861449;77;20106;-70
2021/08/24 04:25:00;;;;;;;;;;;13.90;99.90;;;;;;1829287;78;20132;-71
2021/08/24 04:27:27;;;;;;;;;;;13.60;99.90;;;;;;1854982;77;20502;-71
2021/08/24 04:29:54;;;;;;;;;;;13.70;99.90;;;;;;1855044;77;20200;-71
2021/08/24 04:32:24;;;;;;;;;;;13.60;99.90;;;;;;1861313;77;20400;-71
2021/08/24 04:34:51;;;;;;;;;;;13.70;99.90;;;;;;1829143;78;20183;-71
2021/08/24 04:37:18;;;;;;;;;;;13.70;99.90;;;;;;1854936;77;20118;-70
2021/08/24 04:39:45;;;;;;;;;;;13.70;99.90;;;;;;1861476;77;20171;-71
2021/08/24 04:42:12;;;;;;;;;;;13.60;99.90;;;;;;1828843;78;20164;-71
2021/08/24 04:44:38;;;;;;;;;;;13.50;99.90;;;;;;1861472;77;20110;-70
2021/08/24 04:47:05;;;;;;;;;;;13.60;99.90;;;;;;1829191;78;20160;-71
2021/08/24 04:49:32;;;;;;;;;;;13.50;99.90;;;;;;1861403;77;20211;-70
2021/08/24 04:52:00;;;;;;;;;;;13.60;99.90;;;;;;1828759;78;20124;-71
2021/08/24 04:54:33;;;;;;;;;;;13.60;99.90;;;;;;1854727;77;20213;-71
2021/08/24 04:56:55;;;;;;;;;;;13.60;99.90;;;;;;1853518;77;20130;-71
2021/08/24 04:59:22;;;;;;;;;;;13.60;99.90;;;;;;1861434;76;20126;-70
2021/08/24 05:01:48;;;;;;;;;;;13.70;99.90;;;;;;1828716;78;20952;-70
2021/08/24 05:04:15;;;;;;;;;;;13.70;99.90;;;;;;1861695;77;20127;-71
2021/08/24 05:06:42;;;;;;;;;;;13.70;99.90;;;;;;1828849;78;20192;-71
2021/08/24 05:09:09;;;;;;;;;;;13.70;99.90;;;;;;1861529;77;20177;-71
2021/08/24 05:11:36;;;;;;;;;;;13.70;99.90;;;;;;1828928;78;20190;-71
2021/08/24 05:14:03;;;;;;;;;;;13.50;99.90;;;;;;1861749;77;20185;-71
2021/08/24 05:16:30;;;;;;;;;;;13.50;99.90;;;;;;1829287;78;20124;-71
2021/08/24 05:18:57;;;;;;;;;;;13.60;99.90;;;;;;1861834;77;20459;-71
2021/08/24 05:21:23;;;;;;;;;;;13.70;99.90;;;;;;1829012;78;20128;-71
2021/08/24 05:23:50;;;;;;;;;;;13.70;99.90;;;;;;1861623;76;20449;-70
2021/08/24 05:26:18;;;;;;;;;;;13.80;99.90;;;;;;1829242;78;20176;-70
2021/08/24 05:28:45;;;;;;;;;;;13.80;99.90;;;;;;1861665;77;20450;-70
2021/08/24 05:31:13;;;;;;;;;;;13.80;99.90;;;;;;1829104;77;20132;-70
2021/08/24 05:33:39;;;;;;;;;;;13.90;99.90;;;;;;1855028;77;20162;-71
2021/08/24 05:36:06;;;;;;;;;;;13.80;99.90;;;;;;1861781;77;20122;-70
2021/08/24 05:38:34;;;;;;;;;;;13.80;99.90;;;;;;1829119;78;20217;-70
2021/08/24 05:41:02;;;;;;;;;;;13.90;99.90;;;;;;1861355;77;20122;-70
2021/08/24 05:43:29;;;;;;;;;;;13.90;99.90;;;;;;1829061;78;20132;-71
2021/08/24 05:46:05;;;;;;;;;;;13.90;99.90;;;;;;1861574;77;20185;-70
2021/08/24 05:48:30;;;;;;;;;;;13.90;99.90;;;;;;1828508;78;20154;-70
2021/08/24 05:50:57;;;;;;;;;;;14.00;99.90;;;;;;1861537;77;20189;-70
2021/08/24 05:53:24;;;;;;;;;;;14.10;99.90;;;;;;1829105;77;20172;-70
2021/08/24 05:55:51;;;;;;;;;;;14.00;99.90;;;;;;1861577;77;20118;-70
2021/08/24 05:58:19;;;;;;;;;;;14.00;99.90;;;;;;1829304;78;20136;-70
2021/08/24 06:00:45;;;;;;;;;;;14.10;99.90;;;;;;1861503;76;20177;-70
2021/08/24 06:03:12;;;;;;;;;;;14.10;99.90;;;;;;1828974;77;20188;-71
2021/08/24 06:05:40;;;;;;;;;;;14.10;99.90;;;;;;1861509;77;20126;-71
2021/08/24 06:08:07;;;;;;;;;;;14.10;99.90;;;;;;1829334;78;20179;-70
2021/08/24 06:10:37;;;;;;;;;;;14.20;99.90;;;;;;1861319;77;20126;-71
2021/08/24 06:13:04;;;;;;;;;;;14.20;99.90;;;;;;1829232;78;20137;-70
2021/08/24 06:15:32;;;;;;;;;;;14.30;99.90;;;;;;1855237;77;20130;-70
2021/08/24 06:17:59;;;;;;;;;;;14.30;99.90;;;;;;1861523;76;20173;-70
2021/08/24 06:20:26;;;;;;;;;;;14.40;99.90;;;;;;1828912;78;20393;-71
2021/08/24 06:22:53;;;;;;;;;;;14.50;99.90;;;;;;1861776;77;20529;-70
2021/08/24 06:25:22;;;;;;;;;;;14.50;99.90;;;;;;1829281;78;20143;-71
2021/08/24 06:27:49;;;;;;;;;;;14.50;99.90;;;;;;1854947;76;20416;-71
2021/08/24 06:30:16;;;;;;;;;;;14.60;99.90;;;;;;1861654;77;20118;-71
2021/08/24 06:32:44;;;;;;;;;;;14.60;99.90;;;;;;1829151;78;20676;-71
2021/08/24 06:35:12;;;;;;;;;;;14.70;99.90;;;;;;1861807;77;20177;-70
2021/08/24 06:37:38;;;;;;;;;;;14.80;99.90;;;;;;1829170;78;20159;-71
2021/08/24 06:40:06;;;;;;;;;;;14.90;99.90;;;;;;1855054;77;20502;-71
2021/08/24 06:42:41;;;;;;;;;;;14.90;99.90;;;;;;1861337;77;20114;-70
2021/08/24 06:45:08;;;;;;;;;;;15.00;99.90;;;;;;1829260;78;20175;-71
2021/08/24 06:47:35;;;;;;;;;;;15.10;99.90;;;;;;1854872;77;20225;-71
2021/08/24 06:50:01;;;;;;;;;;;15.10;99.90;;;;;;1855057;77;20204;-70
2021/08/24 06:52:28;;;;;;;;;;;15.20;99.90;;;;;;1861470;77;20157;-70
2021/08/24 06:54:55;;;;;;;;;;;15.20;99.90;;;;;;1829295;78;20344;-70
2021/08/24 06:57:22;;;;;;;;;;;15.20;99.90;;;;;;1861606;77;20462;-71
2021/08/24 06:59:49;;;;;;;;;;;15.30;99.90;;;;;;1829418;78;20221;-71
2021/08/24 07:02:15;;;;;;;;;;;15.30;99.90;;;;;;1854922;77;20169;-70
2021/08/24 07:04:42;;;;;;;;;;;15.40;99.90;;;;;;1855017;77;20200;-71
2021/08/24 07:07:09;;;;;;;;;;;15.40;99.90;;;;;;1861730;77;20114;-71
2021/08/24 07:09:36;;;;;;;;;;;15.50;99.90;;;;;;1829206;78;20172;-70
2021/08/24 07:12:03;;;;;;;;;;;15.50;99.90;;;;;;1854970;77;20106;-70
2021/08/24 07:14:31;;;;;;;;;;;15.60;99.90;;;;;;1855115;77;20231;-71
2021/08/24 07:16:57;;;;;;;;;;;15.70;99.90;;;;;;1861606;77;20172;-71
2021/08/24 07:19:24;;;;;;;;;;;15.70;99.90;;;;;;1829345;78;20196;-71
2021/08/24 07:21:51;;;;;;;;;;;15.80;99.90;;;;;;1861452;77;20125;-70
2021/08/24 07:24:18;;;;;;;;;;;15.90;99.90;;;;;;1829087;78;20186;-71
2021/08/24 07:26:45;;;;;;;;;;;15.90;99.90;;;;;;1854868;77;20134;-71
2021/08/24 07:29:12;;;;;;;;;;;15.90;99.90;;;;;;1861549;77;20225;-71
2021/08/24 07:31:38;;;;;;;;;;;16.00;99.90;;;;;;1828762;78;20179;-71
2021/08/24 07:34:06;;;;;;;;;;;16.00;99.90;;;;;;1861448;77;20126;-71
2021/08/24 07:36:33;;;;;;;;;;;16.00;99.90;;;;;;1828945;77;20183;-71
2021/08/24 07:39:01;;;;;;;;;;;16.10;99.90;;;;;;1861613;77;20142;-71
2021/08/24 07:41:28;;;;;;;;;;;16.20;99.90;;;;;;1828649;78;20417;-71
2021/08/24 07:44:14;;;;;;;;;;;16.20;99.90;;;;;;1854612;77;20173;-71
2021/08/24 07:46:40;;;;;;;;;;;16.20;99.90;;;;;;1807739;79;20161;-71
2021/08/24 07:49:07;;;;;;;;;;;16.20;99.90;;;;;;1807825;79;20180;-70
2021/08/24 07:51:34;;;;;;;;;;;16.30;99.90;;;;;;1816610;79;20125;-71
2021/08/24 07:54:01;;;;;;;;;;;16.30;99.90;;;;;;1831140;77;20168;-70
2021/08/24 07:56:29;;;;;;;;;;;16.30;99.90;;;;;;1820861;79;20129;-70
2021/08/24 07:58:56;;;;;;;;;;;16.30;99.90;;;;;;1820747;79;20168;-71
2021/08/24 08:01:23;;;;;;;;;;;16.40;99.90;;;;;;1820505;79;20221;-71
2021/08/24 08:03:50;;;;;;;;;;;16.40;99.90;;;;;;1820826;78;20261;-70
2021/08/24 08:06:17;;;;;;;;;;;16.50;99.90;;;;;;1820913;79;20128;-70
2021/08/24 08:08:44;;;;;;;;;;;16.50;99.90;;;;;;1820757;79;20446;-71
2021/08/24 08:11:10;;;;;;;;;;;16.60;99.90;;;;;;1820688;79;20276;-71
2021/08/24 08:13:39;;;;;;;;;;;16.60;99.90;;;;;;1820676;78;20295;-71
2021/08/24 08:16:06;;;;;;;;;;;16.70;99.90;;;;;;1820796;79;20180;-71
2021/08/24 08:18:33;;;;;;;;;;;16.70;99.90;;;;;;1820813;79;20156;-71
2021/08/24 08:21:00;;;;;;;;;;;16.70;99.90;;;;;;1820573;79;20456;-71
2021/08/24 08:23:26;;;;;;;;;;;16.70;99.90;;;;;;1820787;77;20171;-71
2021/08/24 08:25:53;;;;;;;;;;;16.80;99.90;;;;;;1820947;79;20179;-71
2021/08/24 08:28:20;;;;;;;;;;;16.90;99.90;;;;;;1820904;79;20132;-70
2021/08/24 08:30:47;;;;;;;;;;;16.90;99.90;;;;;;1820699;79;20172;-71
2021/08/24 08:33:15;;;;;;;;;;;17.00;99.90;;;;;;1822816;74;20246;-70
2021/08/24 08:35:41;;;;;;;;;;;17.00;99.90;;;;;;1821573;79;20417;-70
2021/08/24 08:38:09;;;;;;;;;;;17.10;99.90;;;;;;1821317;79;20495;-70
2021/08/24 08:40:55;;;;;;;;;;;17.10;99.90;;;;;;1821207;79;20187;-70
2021/08/24 08:43:29;;;;;;;;;;;17.20;99.90;;;;;;1821361;79;20186;-70
2021/08/24 08:45:58;;;;;;;;;;;17.10;99.90;;;;;;1821130;78;20158;-70
2021/08/24 08:48:26;;;;;;;;;;;17.10;99.90;;;;;;1821377;77;20178;-70
2021/08/24 08:51:00;;;;;;;;;;;17.10;99.90;;;;;;1821278;79;20174;-70
2021/08/24 08:53:32;;;;;;;;;;;17.20;99.90;;;;;;1819967;77;20492;-70
2021/08/24 08:56:00;;;;;;;;;;;17.20;99.90;;;;;;1821072;78;20308;-70
2021/08/24 08:58:34;;;;;;;;;;;17.30;99.90;;;;;;1821265;78;20174;-71
2021/08/24 09:01:02;;;;;;;;;;;17.40;99.90;;;;;;1820810;78;20435;-71
2021/08/24 09:03:31;;;;;;;;;;;17.40;99.90;;;;;;1819598;77;20166;-70
2021/08/24 09:05:58;;;;;;;;;;;17.50;99.90;;;;;;1820474;78;20456;-70
2021/08/24 09:08:26;;;;;;;;;;;17.50;99.90;;;;;;1821573;79;20276;-70
2021/08/24 09:10:54;;;;;;;;;;;17.50;99.90;;;;;;1821296;79;20135;-70
2021/08/24 09:13:22;;;;;;;;;;;17.50;99.90;;;;;;1821450;79;20403;-70
2021/08/24 09:16:00;;;;;;;;;;;17.60;99.90;;;;;;1821321;78;20189;-70
2021/08/24 09:18:31;;;;;;;;;;;17.60;99.90;;;;;;1821574;79;20166;-70
2021/08/24 09:21:00;;;;;;;;;;;17.70;99.90;;;;;;1820710;78;20452;-70
2021/08/24 09:23:27;;;;;;;;;;;17.80;99.90;;;;;;1820060;78;20209;-70
2021/08/24 09:25:55;;;;;;;;;;;17.80;99.90;;;;;;1821560;79;20169;-70
2021/08/24 09:28:26;;;;;;;;;;;17.80;99.90;;;;;;1820941;78;20187;-70
2021/08/24 09:30:54;;;;;;;;;;;18.00;99.90;;;;;;1821109;79;20162;-70
2021/08/24 09:33:21;;;;;;;;;;;18.10;99.90;;;;;;1821490;79;20201;-70
2021/08/24 09:35:49;;;;;;;;;;;18.10;99.90;;;;;;1821558;78;20162;-70
2021/08/24 09:38:17;;;;;;;;;;;18.20;99.90;;;;;;1821378;79;20159;-70
2021/08/24 09:40:45;;;;;;;;;;;18.30;99.90;;;;;;1821180;79;20161;-70
2021/08/24 09:43:20;;;;;;;;;;;18.30;99.90;;;;;;1821491;79;20213;-70
2021/08/24 09:45:48;;;;;;;;;;;18.40;99.90;;;;;;1821665;79;20444;-70
2021/08/24 09:48:15;;;;;;;;;;;18.30;99.90;;;;;;1820914;78;20178;-70
2021/08/24 09:50:44;;;;;;;;;;;18.40;99.90;;;;;;1821323;79;20186;-70
2021/08/24 09:53:30;;;;;;;;;;;18.40;99.90;;;;;;1821354;79;20217;-70
2021/08/24 09:55:57;;;;;;;;;;;18.40;99.90;;;;;;1821364;78;20171;-70
2021/08/24 09:58:25;;;;;;;;;;;18.40;99.90;;;;;;1821389;79;20131;-70
2021/08/24 10:00:57;;;;;;;;;;;18.40;99.90;;;;;;1816735;78;20151;-70
2021/08/24 10:03:28;;;;;;;;;;;18.50;99.90;;;;;;1821417;79;20196;-70
2021/08/24 10:06:02;;;;;;;;;;;18.60;99.90;;;;;;1820457;78;20156;-70
2021/08/24 10:08:30;;;;;;;;;;;18.60;99.90;;;;;;1821573;79;20155;-70
2021/08/24 10:11:15;;;;;;;;;;;18.60;99.90;;;;;;1821235;79;20193;-70
2021/08/24 10:13:43;;;;;;;;;;;18.70;99.90;;;;;;1821390;77;20115;-70
2021/08/24 10:16:24;;;;;;;;;;;18.60;99.90;;;;;;1821356;79;20123;-70
2021/08/24 10:18:55;;;;;;;;;;;18.60;99.90;;;;;;1809267;79;20205;-70
2021/08/24 10:21:30;;;;;;;;;;;18.60;99.90;;;;;;1798424;78;20412;-70
2021/08/24 10:23:58;;;;;;;;;;;18.70;99.90;;;;;;1819885;79;20163;-70
2021/08/24 10:26:27;;;;;;;;;;;18.70;99.90;;;;;;1821406;79;20146;-69
2021/08/24 10:28:55;;;;;;;;;;;18.90;99.90;;;;;;1821550;79;20178;-69
2021/08/24 10:31:23;;;;;;;;;;;19.10;99.90;;;;;;1821158;79;20170;-70
2021/08/24 10:34:10;;;;;;;;;;;19.20;99.90;;;;;;1821188;78;20111;-70
2021/08/24 10:36:38;;;;;;;;;;;19.20;99.90;;;;;;1821752;79;20126;-70
2021/08/24 10:39:07;;;;;;;;;;;19.10;99.90;;;;;;1821404;79;20150;-70
2021/08/24 10:41:38;;;;;;;;;;;19.20;99.90;;;;;;1819254;79;20205;-70
2021/08/24 10:44:06;;;;;;;;;;;19.20;99.90;;;;;;1821415;79;20181;-70
2021/08/24 10:46:35;;;;;;;;;;;19.20;99.90;;;;;;1820823;78;20122;-69
2021/08/24 10:49:02;;;;;;;;;;;19.10;99.90;;;;;;1820567;77;20467;-70
2021/08/24 10:51:36;;;;;;;;;;;19.10;99.90;;;;;;1821212;79;20174;-70
2021/08/24 10:54:13;;;;;;;;;;;19.00;99.90;;;;;;1776831;78;20170;-70
2021/08/24 10:57:00;;;;;;;;;;;19.20;99.90;;;;;;1821314;78;20440;-69
2021/08/24 10:59:42;;;;;;;;;;;19.30;99.90;;;;;;1821322;78;20116;-69
2021/08/24 11:02:16;;;;;;;;;;;19.40;99.90;;;;;;1820935;78;20177;-70
2021/08/24 11:04:45;;;;;;;;;;;19.50;99.90;;;;;;1821460;79;20118;-70
2021/08/24 11:07:25;;;;;;;;;;;19.60;99.90;;;;;;1821167;77;20122;-69
2021/08/24 11:09:57;;;;;;;;;;;19.50;99.90;;;;;;1820723;78;20185;-70
2021/08/24 11:12:28;;;;;;;;;;;19.60;99.90;;;;;;1821195;77;20177;-71
2021/08/24 11:15:13;;;;;;;;;;;19.50;99.90;;;;;;1821329;79;20351;-70
2021/08/24 11:17:41;;;;;;;;;;;19.50;99.90;;;;;;1821471;79;20112;-69
2021/08/24 11:20:18;;;;;;;;;;;19.60;99.90;;;;;;1821418;79;20124;-69
2021/08/24 11:22:50;;;;;;;;;;;19.80;99.90;;;;;;1821456;79;20175;-71
2021/08/24 11:25:36;;;;;;;;;;;19.80;99.90;;;;;;1820605;78;20435;-69
2021/08/24 11:28:20;;;;;;;;;;;19.90;99.90;;;;;;1821430;79;20162;-70
2021/08/24 11:30:57;;;;;;;;;;;19.90;99.90;;;;;;1820922;78;20119;-70
2021/08/24 11:33:37;;;;;;;;;;;20.00;99.90;;;;;;1820259;78;20224;-70
2021/08/24 11:36:06;;;;;;;;;;;20.00;99.90;;;;;;1821247;78;20111;-70
2021/08/24 11:38:37;;;;;;;;;;;20.10;99.90;;;;;;1821376;77;20131;-70
2021/08/24 11:41:18;;;;;;;;;;;20.10;99.90;;;;;;1820435;78;20155;-70
2021/08/24 11:43:46;;;;;;;;;;;20.10;99.90;;;;;;1821313;77;20150;-70
2021/08/24 11:46:17;;;;;;;;;;;20.10;99.90;;;;;;1821253;79;20161;-70
2021/08/24 11:48:46;;;;;;;;;;;20.20;99.90;;;;;;1769745;78;20158;-70
2021/08/24 11:51:15;;;;;;;;;;;20.30;99.90;;;;;;1821210;79;20126;-70
2021/08/24 11:53:52;;;;;;;;;;;20.40;99.90;;;;;;1820607;78;20174;-70
2021/08/24 11:56:36;;;;;;;;;;;20.40;99.90;;;;;;1821483;79;20201;-70
2021/08/24 11:59:05;;;;;;;;;;;20.40;99.90;;;;;;1821395;79;20440;-70
2021/08/24 12:01:33;;;;;;;;;;;20.40;99.90;;;;;;1821122;77;20514;-70
2021/08/24 12:04:02;;;;;;;;;;;20.40;99.90;;;;;;1821379;79;20127;-70
2021/08/24 12:06:39;;;;;;;;;;;20.40;99.90;;;;;;1821433;79;20550;-70
2021/08/24 12:09:06;;;;;;;;;;;20.40;99.90;;;;;;1821221;77;20388;-70
2021/08/24 12:11:40;;;;;;;;;;;20.60;99.90;;;;;;1821120;79;20174;-70
2021/08/24 12:14:26;;;;;;;;;;;20.50;99.90;;;;;;1821263;79;20197;-70
2021/08/24 12:16:55;;;;;;;;;;;20.70;99.90;;;;;;1821333;79;20158;-70
2021/08/24 12:19:23;;;;;;;;;;;20.70;99.90;;;;;;1820209;78;20134;-70
2021/08/24 12:21:51;;;;;;;;;;;20.70;99.90;;;;;;1821269;79;20420;-70
2021/08/24 12:24:26;;;;;;;;;;;20.80;99.90;;;;;;1821217;79;20174;-70
2021/08/24 12:26:57;;;;;;;;;;;20.80;99.90;;;;;;1821287;79;20170;-70
2021/08/24 12:29:34;;;;;;;;;;;20.90;99.90;;;;;;1821418;79;20123;-70
2021/08/24 12:32:03;;;;;;;;;;;20.90;99.90;;;;;;1821135;79;20217;-70
2021/08/24 12:34:41;;;;;;;;;;;21.00;99.90;;;;;;1820079;78;20181;-70
2021/08/24 12:37:07;;;;;;;;;;;21.10;99.90;;;;;;1820121;78;20178;-70
2021/08/24 12:39:36;;;;;;;;;;;21.00;99.90;;;;;;1765938;78;20455;-70
2021/08/24 12:42:12;;;;;;;;;;;20.90;99.90;;;;;;1821079;79;20115;-70
2021/08/24 12:44:43;;;;;;;;;;;20.90;99.90;;;;;;1821294;79;20200;-70
2021/08/24 12:47:12;;;;;;;;;;;21.10;99.90;;;;;;1821227;78;20166;-70
2021/08/24 12:49:39;;;;;;;;;;;21.20;99.90;;;;;;1821590;79;20231;-70
2021/08/24 12:52:07;;;;;;;;;;;21.20;99.90;;;;;;1821076;79;20181;-70
2021/08/24 12:54:47;;;;;;;;;;;21.20;99.90;;;;;;1819542;78;20170;-70
2021/08/24 12:57:16;;;;;;;;;;;21.20;99.90;;;;;;1821302;79;20209;-70
2021/08/24 12:59:47;;;;;;;;;;;21.30;99.90;;;;;;1821516;78;20431;-70
2021/08/24 13:02:24;;;;;;;;;;;21.20;99.90;;;;;;1819787;78;20214;-70
2021/08/24 13:04:53;;;;;;;;;;;21.30;99.90;;;;;;1821482;79;20162;-70
2021/08/24 13:07:21;;;;;;;;;;;21.30;99.90;;;;;;1821560;79;20385;-70
2021/08/24 13:09:49;;;;;;;;;;;21.30;99.90;;;;;;1820521;77;20111;-70
2021/08/24 13:12:36;;;;;;;;;;;21.40;99.90;;;;;;1821228;79;20499;-70
2021/08/24 13:15:04;;;;;;;;;;;21.40;99.90;;;;;;1821350;79;20162;-70
2021/08/24 13:17:48;;;;;;;;;;;21.50;99.90;;;;;;1818489;79;20409;-70
2021/08/24 13:20:16;;;;;;;;;;;21.60;99.90;;;;;;1821246;79;20213;-70
2021/08/24 13:22:46;;;;;;;;;;;21.60;99.90;;;;;;1820455;78;20166;-70
2021/08/24 13:25:14;;;;;;;;;;;21.70;99.90;;;;;;1821060;78;20204;-70
2021/08/24 13:27:45;;;;;;;;;;;21.80;99.90;;;;;;1821376;79;20195;-70
2021/08/24 13:30:13;;;;;;;;;;;21.80;99.90;;;;;;1819836;78;20174;-70
2021/08/24 13:32:47;;;;;;;;;;;21.80;99.90;;;;;;1821471;79;20161;-70
2021/08/24 13:35:22;;;;;;;;;;;21.80;99.90;;;;;;1821417;79;20150;-70
2021/08/24 13:37:50;;;;;;;;;;;21.90;99.90;;;;;;1820824;79;20447;-70
2021/08/24 13:40:27;;;;;;;;;;;22.00;99.90;;;;;;1821376;79;20173;-70
2021/08/24 13:42:56;;;;;;;;;;;22.00;99.90;;;;;;1821533;79;20123;-70
2021/08/24 13:45:24;;;;;;;;;;;22.20;99.90;;;;;;1821623;79;20126;-70
2021/08/24 13:47:53;;;;;;;;;;;22.20;99.90;;;;;;1821475;79;20167;-70
2021/08/24 13:50:30;;;;;;;;;;;22.30;99.90;;;;;;1821338;79;20245;-70
2021/08/24 13:53:16;;;;;;;;;;;22.30;99.90;;;;;;1821383;79;20135;-70
2021/08/24 13:55:45;;;;;;;;;;;22.40;99.90;;;;;;1821498;79;20499;-70
2021/08/24 13:58:28;;;;;;;;;;;22.50;99.90;;;;;;1821041;78;20210;-70
2021/08/24 14:01:06;;;;;;;;;;;22.60;99.90;;;;;;1821266;79;20813;-71
2021/08/24 14:03:34;;;;;;;;;;;22.50;99.90;;;;;;1821464;79;20130;-70
2021/08/24 14:06:02;;;;;;;;;;;22.50;99.90;;;;;;1821007;78;20123;-71
2021/08/24 14:08:31;;;;;;;;;;;22.50;99.90;;;;;;1821513;79;20126;-70
2021/08/24 14:10:59;;;;;;;;;;;22.50;99.90;;;;;;1821228;79;20438;-70
2021/08/24 14:13:26;;;;;;;;;;;22.50;99.90;;;;;;1821473;79;20401;-70
2021/08/24 14:15:54;;;;;;;;;;;22.40;99.90;;;;;;1821421;79;20455;-70
2021/08/24 14:18:32;;;;;;;;;;;22.40;99.90;;;;;;1821316;78;20170;-70
2021/08/24 14:21:03;;;;;;;;;;;22.50;99.90;;;;;;1821025;79;20158;-70
2021/08/24 14:23:32;;;;;;;;;;;22.50;99.90;;;;;;1820709;78;20150;-70
2021/08/24 14:26:00;;;;;;;;;;;22.60;99.90;;;;;;1821139;79;20228;-70
2021/08/24 14:28:28;;;;;;;;;;;22.80;99.90;;;;;;1821163;79;20194;-70
2021/08/24 14:30:56;;;;;;;;;;;22.90;99.90;;;;;;1820889;79;20455;-70